createdAt,value
2023-10-08T00:07:52.624Z,16.50
2023-10-08T00:15:58.454Z,16.70
2023-10-08T00:24:13.595Z,16.70
2023-10-08T00:32:20.171Z,16.70
2023-10-08T00:40:30.770Z,16.90
2023-10-08T00:48:37.242Z,16.90
2023-10-08T00:56:54.443Z,17.10
2023-10-08T01:05:01.735Z,17.20
2023-10-08T01:13:16.110Z,17.40
2023-10-08T01:21:35.590Z,17.30
2023-10-08T01:29:45.834Z,17.50
2023-10-08T01:37:51.997Z,17.60
2023-10-08T01:46:00.201Z,17.60
2023-10-08T01:54:11.341Z,17.70
2023-10-08T02:02:20.546Z,17.40
2023-10-08T02:10:26.574Z,17.50
2023-10-08T02:18:34.607Z,17.60
2023-10-08T02:26:40.161Z,17.60
2023-10-08T02:34:48.272Z,17.50
2023-10-08T02:42:53.698Z,17.70
2023-10-08T02:59:40.571Z,17.90
2023-10-08T03:07:52.556Z,17.80
2023-10-08T03:16:11.028Z,17.80
2023-10-08T03:24:31.330Z,17.70
2023-10-08T03:32:37.087Z,18.20
2023-10-08T03:40:47.570Z,18.60
2023-10-08T03:48:53.674Z,18.60
2023-10-08T03:57:02.355Z,18.90
2023-10-08T04:05:19.852Z,19.30
2023-10-08T04:13:29.494Z,19.10
2023-10-08T04:21:35.350Z,18.80
2023-10-08T04:29:45.001Z,18.40
2023-10-08T04:37:53.861Z,18.30
2023-10-08T04:46:06.586Z,18.30
2023-10-08T04:54:12.937Z,18.20
2023-10-08T05:02:35.479Z,18.60
2023-10-08T05:11:04.503Z,18.40
2023-10-08T05:19:48.949Z,18.60
2023-10-08T05:28:10.611Z,18.80
2023-10-08T05:36:29.749Z,19.20
2023-10-08T05:44:40.800Z,19.30
2023-10-08T05:53:03.564Z,19.60
2023-10-08T06:01:27.462Z,19.90
2023-10-08T06:09:41.267Z,20.20
2023-10-08T06:18:06.213Z,20.30
2023-10-08T06:26:23.256Z,20.70
2023-10-08T06:34:29.464Z,20.90
2023-10-08T06:42:38.599Z,21.70
2023-10-08T06:50:44.041Z,22.30
2023-10-08T06:58:54.638Z,22.30
2023-10-08T07:07:01.158Z,23.20
2023-10-08T07:15:13.860Z,23.60
2023-10-08T07:23:26.293Z,24.20
2023-10-08T07:31:35.731Z,24.70
2023-10-08T07:39:48.400Z,24.80
2023-10-08T07:47:56.879Z,24.90
2023-10-08T07:56:07.983Z,24.90
2023-10-08T08:04:22.816Z,24.90
2023-10-08T08:12:29.814Z,24.90
2023-10-08T08:20:40.411Z,24.90
2023-10-08T08:28:47.542Z,25.00
2023-10-08T08:36:55.763Z,24.80
2023-10-08T08:45:02.038Z,24.90
2023-10-08T08:53:11.175Z,24.70
2023-10-08T09:01:18.956Z,24.80
2023-10-08T09:09:29.296Z,25.30
2023-10-08T09:17:34.827Z,25.30
2023-10-08T09:25:43.418Z,25.30
2023-10-08T09:33:58.350Z,26.00
2023-10-08T09:42:08.620Z,31.50
2023-10-08T09:50:16.143Z,37.40
2023-10-08T09:58:26.034Z,40.30
2023-10-08T10:06:33.687Z,42.10
2023-10-08T10:14:50.082Z,41.80
2023-10-08T10:22:55.563Z,40.20
2023-10-08T10:31:05.119Z,39.90
2023-10-08T10:39:17.459Z,36.60
2023-10-08T10:47:44.229Z,32.40
2023-10-08T10:56:00.135Z,29.10
2023-10-08T11:04:17.483Z,27.60
2023-10-08T11:12:44.091Z,26.80
2023-10-08T11:21:00.743Z,26.00
2023-10-08T11:29:08.038Z,25.30
2023-10-08T11:37:27.289Z,25.40
2023-10-08T11:45:39.616Z,25.60
2023-10-08T11:53:48.225Z,24.90
2023-10-08T12:01:53.901Z,25.00
2023-10-08T12:10:01.986Z,25.20
2023-10-08T12:18:16.735Z,25.30
2023-10-08T12:26:25.107Z,25.40
2023-10-08T12:34:31.086Z,25.20
2023-10-08T12:42:40.063Z,24.90
2023-10-08T12:50:54.432Z,24.30
2023-10-08T12:59:05.641Z,23.90
2023-10-08T13:07:13.269Z,23.90
2023-10-08T13:15:27.178Z,23.80
2023-10-08T13:23:36.544Z,23.60
2023-10-08T13:31:47.437Z,23.50
2023-10-08T13:39:54.321Z,23.50
2023-10-08T13:48:03.356Z,23.30
2023-10-08T13:56:08.909Z,23.20
2023-10-08T14:04:19.275Z,23.30
2023-10-08T14:12:28.916Z,23.50
2023-10-08T14:20:41.951Z,23.60
2023-10-08T14:28:52.532Z,23.30
2023-10-08T14:37:25.192Z,22.70
2023-10-08T14:45:33.119Z,21.50
2023-10-08T14:53:41.567Z,20.90
2023-10-08T15:01:48.495Z,20.40
2023-10-08T15:09:58.904Z,20.60
2023-10-08T15:18:04.757Z,20.30
2023-10-08T15:26:13.413Z,20.10
2023-10-08T15:34:32.344Z,19.90
2023-10-08T15:42:43.509Z,19.80
2023-10-08T15:50:49.134Z,19.80
2023-10-08T15:58:57.278Z,20.10
2023-10-08T16:07:02.981Z,20.10
2023-10-08T16:15:12.681Z,20.30
2023-10-08T16:23:18.672Z,20.20
2023-10-08T16:31:26.795Z,20.20
2023-10-08T16:39:32.424Z,19.90
2023-10-08T16:47:43.569Z,20.00
2023-10-08T16:55:51.338Z,19.80
2023-10-08T17:04:01.090Z,19.70
2023-10-08T17:12:11.227Z,19.80
2023-10-08T17:20:23.759Z,19.70
2023-10-08T17:28:32.283Z,19.60
2023-10-08T17:36:40.711Z,19.10
2023-10-08T17:44:46.751Z,19.10
2023-10-08T17:52:56.069Z,19.10
2023-10-08T18:01:07.578Z,19.10
2023-10-08T18:09:21.786Z,19.00
2023-10-08T18:17:27.485Z,19.00
2023-10-08T18:25:35.777Z,19.00
2023-10-08T18:33:44.820Z,18.90
2023-10-08T18:41:55.741Z,18.80
2023-10-08T18:50:12.894Z,18.70
2023-10-08T18:58:23.994Z,18.60
2023-10-08T19:06:30.373Z,18.50
2023-10-08T19:14:39.397Z,18.30
2023-10-08T19:22:47.420Z,18.30
2023-10-08T19:31:03.490Z,18.20
2023-10-08T19:39:14.840Z,18.20
2023-10-08T19:47:23.097Z,18.10
2023-10-08T19:55:28.543Z,17.90
2023-10-08T20:03:36.754Z,17.80
2023-10-08T20:11:42.332Z,17.80
2023-10-08T20:19:52.248Z,17.50
2023-10-08T20:27:57.838Z,17.40
2023-10-08T20:36:07.117Z,17.30
2023-10-08T20:44:13.663Z,17.30
2023-10-08T20:52:22.340Z,17.00
2023-10-08T21:00:31.517Z,16.80
2023-10-08T21:08:39.917Z,16.90
2023-10-08T21:16:45.299Z,16.70
2023-10-08T21:24:53.336Z,16.70
2023-10-08T21:33:00.528Z,16.60
2023-10-08T21:41:08.628Z,16.50
2023-10-08T21:49:14.389Z,16.30
2023-10-08T21:57:22.669Z,16.20
2023-10-08T22:05:31.090Z,16.20
2023-10-08T22:13:40.079Z,16.00
2023-10-08T22:21:48.012Z,16.10
2023-10-08T22:29:56.386Z,16.00
2023-10-08T22:38:06.357Z,15.60
2023-10-08T22:46:26.117Z,15.50
2023-10-08T22:54:33.540Z,15.30
2023-10-08T23:11:08.184Z,14.60
2023-10-08T23:19:16.366Z,14.50
2023-10-08T23:27:21.851Z,14.60
2023-10-08T23:35:29.940Z,14.20
2023-10-08T23:43:42.349Z,14.10
2023-10-08T23:51:53.322Z,14.20
